Time;durP1;ratioP1;P1;durP2;ratioP2;P2;SDS_P1;SDS_P2;PMS_P1;PMS_P2;Temp;Humidity;BMP_temperature;BMP_pressure;BME280_temperature;BME280_humidity;BME280_pressure;Samples;Min_cycle;Max_cycle;Signal;HPM_P1;HPM_P2
2021/03/15 00:01:08;;;;;;;41.90;27.35;;;;;;;4.54;84.50;98472.99;1808600;79;21540;-61
2021/03/15 00:03:37;;;;;;;42.23;29.10;;;;;;;4.54;84.62;98474.72;1808500;79;21116;-61
2021/03/15 00:06:05;;;;;;;46.65;30.15;;;;;;;4.55;84.84;98467.40;1808502;79;21140;-61
2021/03/15 00:08:33;;;;;;;45.75;30.35;;;;;;;4.53;85.04;98464.03;1808514;79;21639;-61
2021/03/15 00:11:01;;;;;;;49.27;32.10;;;;;;;4.50;85.22;98465.81;1808538;78;20931;-61
2021/03/15 00:13:30;;;;;;;53.60;32.83;;;;;;;4.50;85.55;98464.52;1808459;79;21458;-61
2021/03/15 00:16:00;;;;;;;47.23;30.72;;;;;;;4.49;85.62;98464.57;1808535;79;21489;-61
2021/03/15 00:18:30;;;;;;;54.42;33.50;;;;;;;4.46;85.85;98465.51;1808606;79;21049;-61
2021/03/15 00:20:58;;;;;;;53.55;33.25;;;;;;;4.43;86.14;98470.75;1808423;78;21510;-61
2021/03/15 00:23:26;;;;;;;53.80;33.55;;;;;;;4.44;86.42;98465.16;1808154;79;20987;-61
2021/03/15 00:25:54;;;;;;;60.33;36.53;;;;;;;4.44;86.49;98461.30;1807892;78;21164;-61
2021/03/15 00:28:21;;;;;;;58.00;37.17;;;;;;;4.41;86.62;98467.83;1807883;79;21888;-61
2021/03/15 00:30:48;;;;;;;52.45;31.37;;;;;;;4.39;86.83;98464.05;1807954;78;21053;-61
2021/03/15 00:33:16;;;;;;;58.80;32.93;;;;;;;4.38;86.88;98462.36;1807843;79;21248;-61
2021/03/15 00:35:44;;;;;;;61.53;33.88;;;;;;;4.33;87.01;98467.25;1807862;78;21144;-61
2021/03/15 00:38:12;;;;;;;54.83;32.73;;;;;;;4.31;87.23;98460.87;1807905;79;21053;-61
2021/03/15 00:40:40;;;;;;;48.63;30.55;;;;;;;4.26;87.16;98456.30;1807923;79;21042;-61
2021/03/15 00:43:07;;;;;;;51.53;30.12;;;;;;;4.22;87.13;98458.58;1807928;79;21113;-61
2021/03/15 00:45:35;;;;;;;49.42;30.85;;;;;;;4.18;87.31;98458.74;1807869;79;21191;-61
2021/03/15 00:48:04;;;;;;;48.50;29.20;;;;;;;4.17;87.47;98464.34;1807804;78;21171;-61
2021/03/15 00:50:42;;;;;;;54.18;31.70;;;;;;;4.17;87.72;98459.63;1807975;78;21458;-61
2021/03/15 00:53:09;;;;;;;49.67;30.55;;;;;;;4.20;87.73;98456.97;1807914;78;21061;-61
2021/03/15 00:55:37;;;;;;;45.05;29.80;;;;;;;4.18;87.77;98453.59;1807897;79;21128;-61
2021/03/15 00:58:05;;;;;;;40.25;26.50;;;;;;;4.17;87.66;98453.20;1807879;79;22340;-61
2021/03/15 01:00:36;;;;;;;38.65;26.55;;;;;;;4.15;87.57;98452.80;1807823;79;20923;-61
2021/03/15 01:03:06;;;;;;;40.43;27.48;;;;;;;4.13;87.57;98448.14;1803719;79;21129;-61
2021/03/15 01:05:46;;;;;;;41.45;28.95;;;;;;;4.13;87.66;98448.59;1807879;78;21049;-61
2021/03/15 01:08:28;;;;;;;45.80;31.93;;;;;;;4.14;87.70;98447.70;1805203;79;21144;-61
2021/03/15 01:10:56;;;;;;;45.50;31.07;;;;;;;4.13;87.50;98451.16;1807920;78;21184;-61
2021/03/15 01:13:25;;;;;;;38.63;28.05;;;;;;;4.11;87.59;98453.78;1807633;79;21116;-61
2021/03/15 01:15:53;;;;;;;39.03;27.58;;;;;;;4.13;87.54;98453.73;1807894;78;21042;-61
2021/03/15 01:18:21;;;;;;;43.42;30.27;;;;;;;4.15;87.53;98450.23;1807840;79;21049;-61
2021/03/15 01:20:50;;;;;;;44.35;30.12;;;;;;;4.20;87.67;98447.48;1807875;78;21074;-61
2021/03/15 01:23:17;;;;;;;42.62;30.15;;;;;;;4.26;87.59;98447.30;1807918;79;22111;-60
2021/03/15 01:25:45;;;;;;;47.40;30.50;;;;;;;4.34;87.41;98449.63;1807822;79;21089;-60
2021/03/15 01:28:15;;;;;;;40.00;27.67;;;;;;;4.35;87.08;98457.75;1807853;78;21038;-61
2021/03/15 01:30:44;;;;;;;38.67;27.17;;;;;;;4.35;86.95;98458.59;1807930;79;21089;-60
2021/03/15 01:33:14;;;;;;;45.65;30.52;;;;;;;4.37;86.91;98454.24;1807949;79;21462;-60
2021/03/15 01:35:42;;;;;;;57.08;36.83;;;;;;;4.40;86.87;98457.13;1807934;78;22249;-61
2021/03/15 01:38:10;;;;;;;54.05;33.50;;;;;;;4.43;86.90;98451.89;1807829;79;21065;-60
2021/03/15 01:40:39;;;;;;;54.03;34.08;;;;;;;4.45;86.84;98436.79;1807911;79;21564;-60
2021/03/15 01:43:07;;;;;;;46.95;31.57;;;;;;;4.46;86.67;98438.92;1807948;79;21559;-60
2021/03/15 01:45:36;;;;;;;46.25;30.00;;;;;;;4.46;86.67;98441.49;1807870;79;21117;-61
2021/03/15 01:48:11;;;;;;;53.05;33.98;;;;;;;4.49;86.64;98441.39;1807860;79;21452;-61
2021/03/15 01:50:39;;;;;;;49.83;34.20;;;;;;;4.48;86.53;98433.28;1807808;78;21165;-61
2021/03/15 01:53:07;;;;;;;49.15;32.83;;;;;;;4.47;86.50;98437.58;1807808;79;21521;-61
2021/03/15 01:55:36;;;;;;;54.77;36.75;;;;;;;4.47;86.54;98435.45;1779026;79;21135;-61
2021/03/15 01:58:04;;;;;;;52.67;33.10;;;;;;;4.43;86.40;98430.84;1807954;79;21584;-61
2021/03/15 02:00:32;;;;;;;49.08;30.08;;;;;;;4.41;86.56;98428.77;1807969;79;22072;-60
2021/03/15 02:03:05;;;;;;;49.67;29.25;;;;;;;4.38;86.49;98437.91;1807737;79;21968;-61
2021/03/15 02:05:36;;;;;;;49.15;30.90;;;;;;;4.32;86.64;98439.83;1807863;78;21053;-61
2021/03/15 02:08:05;;;;;;;49.67;32.73;;;;;;;4.27;86.91;98441.26;1807861;79;21042;-61
2021/03/15 02:10:33;;;;;;;51.20;32.17;;;;;;;4.24;86.99;98452.09;1807854;79;21073;-61
2021/03/15 02:13:39;;;;;;;48.25;29.98;;;;;;;4.18;87.06;98448.45;1804399;79;21322;-60
2021/03/15 02:16:33;;;;;;;47.05;29.55;;;;;;;4.14;87.24;98448.98;1799820;79;21561;-60
2021/03/15 02:19:38;;;;;;;45.10;29.00;;;;;;;4.09;87.59;98451.70;1728038;79;21505;-61
2021/03/15 02:22:21;;;;;;;47.93;31.80;;;;;;;4.08;87.91;98451.75;1799961;78;21096;-60
2021/03/15 02:25:20;;;;;;;58.80;34.67;;;;;;;4.06;88.05;98453.52;1800202;78;21068;-60
2021/03/15 02:28:39;;;;;;;46.77;30.65;;;;;;;4.07;88.16;98453.92;1799939;78;21600;-61
2021/03/15 02:31:46;;;;;;;43.90;27.45;;;;;;;4.10;88.34;98453.39;1799863;79;21135;-60
2021/03/15 02:34:42;;;;;;;43.23;28.70;;;;;;;4.19;88.21;98444.55;1799855;78;21607;-61
2021/03/15 02:37:15;;;;;;;47.60;30.10;;;;;;;4.19;87.97;98450.14;1799972;79;21089;-61
2021/03/15 02:39:46;;;;;;;45.12;29.45;;;;;;;4.14;87.72;98442.55;1799927;79;21077;-61
2021/03/15 02:42:16;;;;;;;51.58;28.65;;;;;;;4.07;87.93;98439.33;1800053;79;22012;-61
2021/03/15 02:44:50;;;;;;;43.23;27.37;;;;;;;4.08;87.98;98442.73;1799918;79;21076;-61
2021/03/15 02:47:27;;;;;;;42.98;27.82;;;;;;;4.03;88.02;98433.88;1799979;78;21540;-61
2021/03/15 02:50:01;;;;;;;47.85;29.63;;;;;;;3.98;88.14;98436.22;1799893;79;21623;-61
2021/03/15 02:52:28;;;;;;;48.75;28.62;;;;;;;3.92;88.36;98439.81;1784484;79;21057;-61
2021/03/15 02:54:56;;;;;;;41.83;27.85;;;;;;;3.87;88.35;98442.97;1784424;79;21256;-62
2021/03/15 02:57:23;;;;;;;47.35;28.17;;;;;;;3.84;88.48;98442.21;1799843;79;21140;-62
2021/03/15 02:59:51;;;;;;;48.78;28.70;;;;;;;3.81;88.62;98452.14;1799864;79;21477;-61
2021/03/15 03:02:20;;;;;;;50.12;29.80;;;;;;;3.77;88.88;98448.84;1799880;79;21045;-61
2021/03/15 03:04:48;;;;;;;49.70;30.65;;;;;;;3.77;89.22;98453.16;1799875;78;21136;-61
2021/03/15 03:07:17;;;;;;;54.42;30.85;;;;;;;3.76;89.21;98439.89;1799885;79;21858;-61
2021/03/15 03:09:45;;;;;;;48.73;29.63;;;;;;;3.73;89.40;98437.41;1799874;79;21639;-62
2021/03/15 03:12:13;;;;;;;52.25;31.07;;;;;;;3.72;89.64;98444.28;1799824;79;21045;-62
2021/03/15 03:14:42;;;;;;;59.15;34.03;;;;;;;3.72;89.77;98444.73;1807627;77;21473;-59
2021/03/15 03:17:09;;;;;;;50.83;31.35;;;;;;;3.71;89.90;98443.04;1807782;79;21042;-61
2021/03/15 03:19:38;;;;;;;55.30;32.33;;;;;;;3.70;90.01;98443.48;1807803;79;21201;-61
2021/03/15 03:22:07;;;;;;;58.68;33.45;;;;;;;3.68;90.11;98445.70;1733296;79;21561;-61
2021/03/15 03:24:34;;;;;;;56.20;33.30;;;;;;;3.66;90.17;98447.03;1807771;79;21144;-60
2021/03/15 03:27:02;;;;;;;55.00;32.85;;;;;;;3.66;90.33;98448.31;1807738;78;21057;-61
2021/03/15 03:29:29;;;;;;;58.42;32.55;;;;;;;3.67;90.38;98454.30;1807756;79;21683;-60
2021/03/15 03:31:57;;;;;;;55.03;33.50;;;;;;;3.65;90.50;98456.07;1807728;79;21533;-60
2021/03/15 03:34:25;;;;;;;53.30;31.48;;;;;;;3.64;90.54;98449.25;1807702;79;21113;-61
2021/03/15 03:36:53;;;;;;;46.13;29.63;;;;;;;3.64;90.58;98453.09;1807783;79;21081;-61
2021/03/15 03:39:21;;;;;;;47.80;31.42;;;;;;;3.63;90.67;98451.41;1753803;79;21065;-61
2021/03/15 03:41:49;;;;;;;57.33;31.77;;;;;;;3.59;90.65;98443.42;1807774;79;21121;-61
2021/03/15 03:44:16;;;;;;;53.25;32.40;;;;;;;3.57;90.80;98449.05;1807795;78;21199;-61
2021/03/15 03:46:45;;;;;;;50.28;30.70;;;;;;;3.56;90.88;98453.34;1807799;79;21588;-61
2021/03/15 03:49:14;;;;;;;53.30;31.80;;;;;;;3.55;90.93;98461.10;1807757;78;21045;-61
2021/03/15 03:52:00;;;;;;;54.15;31.87;;;;;;;3.54;90.98;98460.70;1779304;79;21042;-61
2021/03/15 03:54:46;;;;;;;60.92;34.55;;;;;;;3.55;91.23;98463.23;1807804;79;21557;-61
2021/03/15 03:57:22;;;;;;;53.87;32.10;;;;;;;3.61;91.49;98463.47;1801768;79;21382;-61
2021/03/15 03:59:51;;;;;;;55.12;32.70;;;;;;;3.65;91.36;98459.48;1807815;79;21215;-60
2021/03/15 04:02:23;;;;;;;51.00;30.97;;;;;;;3.63;91.04;98453.55;1808010;79;21045;-60
2021/03/15 04:05:01;;;;;;;54.18;31.60;;;;;;;3.62;91.12;98455.72;1807804;79;21073;-60
2021/03/15 04:07:29;;;;;;;60.52;32.20;;;;;;;3.60;91.19;98452.34;1807956;79;21477;-61
2021/03/15 04:10:08;;;;;;;59.70;32.75;;;;;;;3.65;91.53;98449.20;1807893;79;21355;-60
2021/03/15 04:12:37;;;;;;;56.02;32.50;;;;;;;3.70;91.43;98442.64;1807814;78;21110;-61
2021/03/15 04:15:06;;;;;;;50.58;30.25;;;;;;;3.76;91.40;98447.61;1807934;77;21541;-60
2021/03/15 04:17:40;;;;;;;50.58;31.97;;;;;;;3.80;91.06;98449.17;1807895;79;21172;-60
2021/03/15 04:20:12;;;;;;;55.85;32.78;;;;;;;3.76;90.71;98450.18;1807893;78;21112;-61
2021/03/15 04:22:55;;;;;;;69.67;33.92;;;;;;;3.73;90.82;98454.13;1873604;76;22744;-61
2021/03/15 04:25:27;;;;;;;59.67;33.60;;;;;;;3.66;90.86;98464.19;1841555;77;21121;-60
2021/03/15 04:27:54;;;;;;;51.48;32.58;;;;;;;3.65;91.11;98463.34;1811574;78;21470;-61
2021/03/15 04:30:22;;;;;;;65.90;33.23;;;;;;;3.66;91.08;98458.59;1841549;78;21561;-61
2021/03/15 04:32:54;;;;;;;62.90;33.70;;;;;;;3.68;91.25;98446.98;1841620;78;21584;-61
2021/03/15 04:35:25;;;;;;;70.40;35.28;;;;;;;3.72;91.51;98444.73;1841627;78;21062;-60
2021/03/15 04:37:53;;;;;;;68.20;34.83;;;;;;;3.74;91.41;98442.51;1841722;78;21533;-60
2021/03/15 04:40:24;;;;;;;56.98;30.62;;;;;;;3.78;91.44;98444.11;1841537;78;21557;-60
2021/03/15 04:42:52;;;;;;;56.18;33.05;;;;;;;3.82;91.31;98438.40;1841632;77;20990;-60
2021/03/15 04:45:20;;;;;;;59.98;31.27;;;;;;;3.89;91.52;98439.06;1841602;78;21573;-61
2021/03/15 04:47:47;;;;;;;56.83;32.90;;;;;;;3.95;91.68;98433.73;1841555;78;21117;-60
2021/03/15 04:50:15;;;;;;;66.67;33.33;;;;;;;4.04;91.57;98434.72;1841585;78;21061;-61
2021/03/15 04:52:43;;;;;;;53.85;32.35;;;;;;;4.07;90.95;98437.20;1841636;77;21525;-61
2021/03/15 04:55:12;;;;;;;56.48;32.48;;;;;;;4.06;90.86;98435.51;1841484;78;21125;-61
2021/03/15 04:57:39;;;;;;;50.30;32.63;;;;;;;4.07;90.73;98437.20;1811507;78;21393;-61
2021/03/15 05:00:13;;;;;;;57.95;32.58;;;;;;;4.07;90.77;98441.90;1841505;77;21050;-61
2021/03/15 05:02:43;;;;;;;;;;;;;;;4.08;90.69;98440.16;1814717;78;21120;-61
2021/03/15 05:05:14;;;;;;;68.85;34.10;;;;;;;4.08;90.35;98444.03;1841336;78;21190;-61
2021/03/15 05:07:46;;;;;;;53.63;30.15;;;;;;;4.00;90.39;98442.97;1841520;77;21097;-61
2021/03/15 05:10:14;;;;;;;50.33;29.45;;;;;;;4.03;90.58;98444.61;1841578;78;21112;-61
2021/03/15 05:12:42;;;;;;;62.78;31.40;;;;;;;4.05;90.38;98445.41;1841515;78;21113;-61
2021/03/15 05:15:11;;;;;;;62.03;33.10;;;;;;;4.05;90.22;98443.67;1841550;77;21160;-61
2021/03/15 05:17:40;;;;;;;59.67;34.25;;;;;;;4.06;90.19;98451.80;1841638;77;22324;-61
2021/03/15 05:20:11;;;;;;;57.95;32.17;;;;;;;4.08;90.05;98453.03;1839574;78;21053;-61
2021/03/15 05:22:38;;;;;;;54.13;33.48;;;;;;;4.07;89.85;98457.78;1812957;79;21126;-61
2021/03/15 05:25:11;;;;;;;65.37;34.98;;;;;;;4.07;89.70;98462.48;1813793;79;21088;-62
2021/03/15 05:27:42;;;;;;;62.27;34.75;;;;;;;4.04;89.56;98465.59;1813886;79;21073;-61
2021/03/15 05:30:16;;;;;;;62.70;33.33;;;;;;;4.00;89.65;98464.00;1814202;78;21188;-61
2021/03/15 05:32:48;;;;;;;49.40;31.93;;;;;;;3.94;89.42;98462.92;1787443;79;21522;-61
2021/03/15 05:35:16;;;;;;;45.45;30.40;;;;;;;3.87;89.42;98464.83;1813840;79;21493;-61
2021/03/15 05:37:46;;;;;;;55.08;35.75;;;;;;;3.81;89.43;98470.99;1813595;79;21172;-60
2021/03/15 05:40:17;;;;;;;55.33;34.53;;;;;;;3.77;89.68;98472.00;1813720;79;21559;-60
2021/03/15 05:43:10;;;;;;;62.40;33.80;;;;;;;3.79;89.90;98472.80;1813598;79;21365;-61
2021/03/15 05:46:09;;;;;;;63.10;32.30;;;;;;;3.80;89.91;98469.75;1813809;79;21497;-61
2021/03/15 05:49:04;;;;;;;54.13;32.08;;;;;;;3.81;89.84;98470.15;1813633;79;21050;-62
2021/03/15 05:51:49;;;;;;;55.70;34.50;;;;;;;3.83;90.02;98467.53;1813448;79;21580;-61
2021/03/15 05:54:50;;;;;;;61.58;34.00;;;;;;;3.89;90.10;98468.20;1813582;78;21518;-61
2021/03/15 05:58:15;;;;;;;63.75;34.25;;;;;;;3.94;90.01;98468.91;1813614;79;21258;-61
2021/03/15 06:00:58;;;;;;;58.55;34.03;;;;;;;3.99;90.02;98465.76;1813493;78;21081;-60
2021/03/15 06:04:09;;;;;;;54.35;32.45;;;;;;;4.03;89.70;98469.05;1813701;78;21061;-61
2021/03/15 06:06:38;;;;;;;49.48;30.62;;;;;;;4.03;89.50;98467.77;1813439;78;21494;-62
2021/03/15 06:09:07;;;;;;;54.38;31.97;;;;;;;4.02;89.61;98473.80;1813682;79;21477;-62
2021/03/15 06:11:50;;;;;;;47.38;30.62;;;;;;;4.04;89.63;98476.72;1801932;78;21475;-62
2021/03/15 06:14:18;;;;;;;45.50;29.63;;;;;;;4.06;89.32;98479.25;1797046;77;21123;-61
2021/03/15 06:16:46;;;;;;;47.45;29.95;;;;;;;4.06;89.47;98485.24;1799317;78;21210;-61
2021/03/15 06:19:13;;;;;;;56.00;34.50;;;;;;;4.09;89.41;98486.44;1799520;78;21102;-62
2021/03/15 06:21:41;;;;;;;52.53;31.87;;;;;;;4.14;89.42;98484.57;1794798;79;21520;-60
2021/03/15 06:24:10;;;;;;;53.08;32.88;;;;;;;4.17;89.15;98477.20;1782556;79;21196;-62
2021/03/15 06:26:38;;;;;;;46.90;31.35;;;;;;;4.20;88.99;98478.84;1782463;79;21496;-61
2021/03/15 06:29:05;;;;;;;46.58;30.43;;;;;;;4.20;88.66;98488.66;1782517;80;21535;-62
2021/03/15 06:31:34;;;;;;;48.33;30.80;;;;;;;4.18;88.60;98490.91;1782491;80;21147;-62
2021/03/15 06:34:04;;;;;;;49.63;31.30;;;;;;;4.18;88.64;98483.20;1790614;79;21458;-61
2021/03/15 06:36:33;;;;;;;53.70;32.73;;;;;;;4.20;88.63;98477.08;1802691;78;21453;-62
2021/03/15 06:39:02;;;;;;;53.38;33.13;;;;;;;4.23;88.59;98477.43;1721235;82;21605;-61
2021/03/15 06:41:30;;;;;;;57.75;32.67;;;;;;;4.27;88.48;98484.17;1703828;84;21186;-61
2021/03/15 06:43:58;;;;;;;51.83;32.65;;;;;;;4.29;88.47;98478.09;1684587;84;21228;-61
2021/03/15 06:46:26;;;;;;;49.20;32.03;;;;;;;4.36;88.35;98477.02;1704967;82;21240;-61
2021/03/15 06:48:54;;;;;;;43.70;29.98;;;;;;;4.42;88.05;98470.80;1704871;84;21324;-61
2021/03/15 06:51:21;;;;;;;47.75;28.92;;;;;;;4.47;87.99;98474.92;1704950;84;21586;-61
2021/03/15 06:53:49;;;;;;;44.10;27.27;;;;;;;4.52;87.73;98463.19;1704912;82;21071;-61
2021/03/15 06:56:20;;;;;;;40.98;27.05;;;;;;;4.57;87.39;98469.48;1704847;82;21055;-61
2021/03/15 06:58:52;;;;;;;41.00;25.90;;;;;;;4.57;87.02;98464.33;1704926;84;21056;-61
2021/03/15 07:01:25;;;;;;;41.70;27.22;;;;;;;4.57;86.96;98475.47;1705053;84;22265;-62
2021/03/15 07:04:08;;;;;;;44.18;29.02;;;;;;;4.61;87.02;98480.05;1683840;84;26337;-61
2021/03/15 07:06:38;;;;;;;48.38;32.38;;;;;;;4.67;87.04;98490.16;1705101;84;21512;-62
2021/03/15 07:09:13;;;;;;;59.63;39.45;;;;;;;4.71;86.73;98490.01;1704025;82;21643;-62
2021/03/15 07:11:42;;;;;;;63.25;41.00;;;;;;;4.72;86.57;98492.14;1703989;84;21186;-62
2021/03/15 07:14:25;;;;;;;59.10;39.75;;;;;;;4.69;86.33;98490.95;1704601;84;21602;-60
2021/03/15 07:16:58;;;;;;;57.93;36.83;;;;;;;4.65;86.36;98496.64;1749909;80;21129;-60
2021/03/15 07:19:28;;;;;;;48.78;30.80;;;;;;;4.67;86.61;98495.30;1750291;80;21188;-60
2021/03/15 07:21:58;;;;;;;42.58;29.05;;;;;;;4.70;86.58;98485.75;1752401;80;21134;-60
2021/03/15 07:24:30;;;;;;;42.27;26.68;;;;;;;4.76;86.46;98483.42;1727284;81;21485;-62
2021/03/15 07:26:58;;;;;;;38.10;25.07;;;;;;;4.84;86.38;98483.98;1759071;81;21127;-63
2021/03/15 07:29:28;;;;;;;39.18;26.10;;;;;;;4.89;86.13;98479.97;1758731;81;21072;-63
2021/03/15 07:31:55;;;;;;;41.83;28.05;;;;;;;4.95;86.08;98475.45;1758004;81;21057;-62
2021/03/15 07:34:25;;;;;;;40.25;26.85;;;;;;;5.01;85.79;98478.25;1758762;81;21147;-62
2021/03/15 07:36:58;;;;;;;45.55;25.02;;;;;;;5.11;85.89;98473.18;1758750;81;21103;-63
2021/03/15 07:39:28;;;;;;;33.38;22.37;;;;;;;5.18;85.50;98476.79;1758913;81;22275;-61
2021/03/15 07:41:58;;;;;;;33.85;23.73;;;;;;;5.27;85.19;98480.75;1758695;81;21087;-63
2021/03/15 07:44:30;;;;;;;34.03;24.52;;;;;;;5.32;84.91;98477.58;1758685;80;21069;-63
2021/03/15 07:47:04;;;;;;;35.63;25.72;;;;;;;5.41;84.82;98480.25;1758857;81;21503;-63
2021/03/15 07:49:39;;;;;;;41.73;28.42;;;;;;;5.52;84.72;98482.00;1758889;81;21108;-63
2021/03/15 07:52:11;;;;;;;41.37;28.98;;;;;;;5.62;84.43;98485.07;1758760;81;21143;-62
2021/03/15 07:54:41;;;;;;;41.55;28.67;;;;;;;5.69;84.14;98486.09;1758815;81;21084;-63
2021/03/15 07:57:23;;;;;;;33.30;24.82;;;;;;;5.76;83.88;98489.28;1758722;81;21072;-63
2021/03/15 07:59:55;;;;;;;36.88;27.50;;;;;;;5.81;83.47;98491.22;1739729;81;21166;-62
2021/03/15 08:02:34;;;;;;;40.50;29.25;;;;;;;5.78;83.24;98482.33;1758740;81;21124;-64
2021/03/15 08:05:01;;;;;;;34.00;26.40;;;;;;;5.78;83.39;98482.33;1758784;81;21210;-63
2021/03/15 08:07:30;;;;;;;33.60;23.20;;;;;;;5.78;83.26;98472.86;1758578;81;21220;-63
2021/03/15 08:09:59;;;;;;;32.50;22.58;;;;;;;5.80;83.18;98467.61;1758723;81;21056;-63
2021/03/15 08:12:35;;;;;;;32.67;22.25;;;;;;;5.84;83.22;98468.73;1758794;81;21466;-64
2021/03/15 08:15:10;;;;;;;30.35;21.05;;;;;;;5.91;83.24;98464.22;1758840;81;21544;-64
2021/03/15 08:17:46;;;;;;;39.25;24.05;;;;;;;5.94;83.13;98463.26;1758690;81;21429;-61
2021/03/15 08:20:28;;;;;;;36.88;22.77;;;;;;;5.98;83.26;98463.09;1716848;82;21167;-62
2021/03/15 08:22:55;;;;;;;40.75;24.30;;;;;;;6.10;83.30;98452.72;1741366;82;21513;-63
2021/03/15 08:25:23;;;;;;;33.38;19.77;;;;;;;6.21;83.17;98443.63;1741377;82;21115;-64
2021/03/15 08:31:37;;;;;;;32.15;19.95;;;;;;;6.49;82.36;98438.64;1741215;82;21135;-64
2021/03/15 08:34:06;;;;;;;31.17;20.45;;;;;;;6.59;81.60;98442.55;1750787;81;21070;-63
2021/03/15 08:36:42;;;;;;;35.60;21.05;;;;;;;6.62;81.92;98436.38;1786837;80;21063;-63
2021/03/15 08:39:32;;;;;;;29.55;19.65;;;;;;;6.66;81.68;98437.48;1768342;81;21045;-63
2021/03/15 08:42:12;;;;;;;26.20;17.82;;;;;;;6.72;81.64;98438.53;1759867;81;21572;-64
2021/03/15 08:44:46;;;;;;;27.45;18.67;;;;;;;6.70;81.22;98436.91;1783389;80;22204;-64
2021/03/15 08:47:36;;;;;;;24.00;18.25;;;;;;;6.67;81.59;98430.13;1763222;80;21092;-65
2021/03/15 08:50:34;;;;;;;;;;;;;;;6.68;81.58;98430.52;1768064;78;21055;-65
2021/03/15 08:53:11;;;;;;;26.30;17.32;;;;;;;6.71;81.46;98433.42;1810029;78;20270;-65
2021/03/15 08:55:53;;;;;;;23.73;16.87;;;;;;;6.71;80.99;98430.84;1772532;79;21128;-64
2021/03/15 08:58:47;;;;;;;20.68;17.12;;;;;;;6.70;81.13;98433.03;1770505;81;21590;-63
2021/03/15 09:01:17;;;;;;;20.23;16.50;;;;;;;6.72;81.09;98431.23;1792637;80;21103;-62
2021/03/15 09:03:54;;;;;;;24.50;16.42;;;;;;;6.72;80.89;98428.65;1773822;79;21041;-62
2021/03/15 09:06:37;;;;;;;24.95;18.73;;;;;;;6.64;80.56;98428.95;1771153;81;21117;-62
2021/03/15 09:09:10;;;;;;;31.12;21.20;;;;;;;6.52;80.79;98428.19;1806879;79;21474;-62
2021/03/15 09:14:32;;;;;;;24.27;17.25;;;;;;;6.42;81.67;98420.42;1909851;74;21988;-62
2021/03/15 09:17:16;;;;;;;22.25;16.93;;;;;;;6.42;81.66;98421.70;1849766;77;21533;-64
2021/03/15 09:19:47;;;;;;;23.80;17.37;;;;;;;6.40;81.88;98427.39;1849642;77;21322;-65
2021/03/15 09:22:27;;;;;;;23.90;17.37;;;;;;;6.35;81.79;98435.34;1818130;77;21624;-64
2021/03/15 09:24:59;;;;;;;20.25;15.65;;;;;;;6.30;82.23;98432.55;1815571;79;21092;-65
2021/03/15 09:27:43;;;;;;;25.40;17.70;;;;;;;6.28;82.23;98431.78;1816344;79;21141;-64
2021/03/15 09:30:26;;;;;;;23.75;17.92;;;;;;;6.23;82.40;98432.80;1816501;79;21045;-64
2021/03/15 09:32:57;;;;;;;22.98;17.37;;;;;;;6.27;82.87;98433.97;1805548;78;21176;-64
2021/03/15 09:35:39;;;;;;;21.57;16.85;;;;;;;6.35;82.91;98435.80;1809856;79;20961;-64
2021/03/15 09:38:25;;;;;;;22.52;16.00;;;;;;;6.37;82.76;98434.84;1810397;79;21155;-62
2021/03/15 09:40:57;;;;;;;20.62;16.20;;;;;;;6.41;82.78;98434.23;1786238;79;21107;-62
2021/03/15 09:43:27;;;;;;;24.12;17.27;;;;;;;6.47;83.14;98427.53;1722064;79;21201;-62
2021/03/15 09:46:00;;;;;;;24.52;18.80;;;;;;;6.53;82.88;98433.30;1810420;79;21178;-63
2021/03/15 09:48:31;;;;;;;22.67;17.87;;;;;;;6.59;82.91;98425.75;1810502;79;21058;-63
2021/03/15 09:51:03;;;;;;;20.35;15.80;;;;;;;6.67;82.44;98429.28;1780757;79;21041;-63
2021/03/15 09:53:49;;;;;;;18.12;14.35;;;;;;;6.68;82.05;98433.09;1810322;79;21060;-63
2021/03/15 09:56:19;;;;;;;19.10;15.45;;;;;;;6.66;81.74;98426.31;1809844;79;21044;-63
2021/03/15 09:58:50;;;;;;;20.65;15.30;;;;;;;6.60;81.78;98426.11;1810067;79;22166;-62
2021/03/15 10:01:21;;;;;;;21.17;16.32;;;;;;;6.54;81.78;98422.52;1810333;79;21125;-63
2021/03/15 10:04:14;;;;;;;20.02;17.45;;;;;;;6.51;81.97;98414.89;1873521;75;22675;-63
2021/03/15 10:06:46;;;;;;;20.13;15.77;;;;;;;6.47;82.28;98420.63;1808940;78;21139;-63
2021/03/15 10:09:40;;;;;;;21.25;15.88;;;;;;;6.51;82.56;98418.77;1769545;80;21188;-63
2021/03/15 10:12:20;;;;;;;22.93;17.17;;;;;;;6.61;82.50;98413.58;1888491;76;22682;-62
2021/03/15 10:15:02;;;;;;;22.02;18.37;;;;;;;6.56;82.36;98406.05;1742501;80;21170;-63
2021/03/15 10:17:41;;;;;;;23.67;17.52;;;;;;;6.56;82.27;98407.34;1773146;81;21540;-62
2021/03/15 10:20:26;;;;;;;18.73;15.15;;;;;;;6.58;82.40;98404.70;1770682;80;21505;-63
2021/03/15 10:22:54;;;;;;;18.70;15.32;;;;;;;6.61;81.87;98399.38;1755748;81;21151;-64
2021/03/15 10:25:23;;;;;;;19.85;15.83;;;;;;;6.59;81.80;98401.20;1734258;82;21168;-63
2021/03/15 10:27:59;;;;;;;19.27;15.80;;;;;;;6.60;81.95;98408.02;1756061;81;21570;-63
2021/03/15 10:30:31;;;;;;;20.62;16.32;;;;;;;6.62;81.75;98409.25;1733861;82;21314;-64
2021/03/15 10:32:59;;;;;;;21.42;16.97;;;;;;;6.60;81.49;98413.19;1755980;81;21500;-62
2021/03/15 10:35:30;;;;;;;20.70;16.67;;;;;;;6.57;81.67;98418.52;1734108;82;21093;-63
2021/03/15 10:38:03;;;;;;;19.42;14.70;;;;;;;6.55;81.53;98412.12;1754438;81;21595;-64
2021/03/15 10:40:38;;;;;;;20.92;15.88;;;;;;;6.53;81.70;98404.88;1734163;82;21068;-63
2021/03/15 10:43:08;;;;;;;19.75;15.03;;;;;;;6.46;81.77;98405.19;1755690;81;21444;-63
2021/03/15 10:45:36;;;;;;;20.32;15.05;;;;;;;6.42;82.18;98398.47;1734282;82;21076;-62
2021/03/15 10:48:07;;;;;;;17.55;13.25;;;;;;;6.41;82.38;98396.33;1755697;81;21139;-63
2021/03/15 10:50:55;;;;;;;17.25;13.45;;;;;;;6.42;82.47;98390.72;1734212;82;21129;-63
2021/03/15 10:53:30;;;;;;;16.82;12.28;;;;;;;6.43;82.61;98392.40;1740642;81;21154;-63
2021/03/15 10:56:00;;;;;;;15.50;12.73;;;;;;;6.41;82.70;98400.20;1734242;82;21253;-62
2021/03/15 10:58:38;;;;;;;18.57;13.80;;;;;;;6.35;82.91;98398.36;1727332;81;21284;-64
2021/03/15 11:01:08;;;;;;;18.57;13.35;;;;;;;6.30;83.22;98394.66;1733100;82;21072;-63
2021/03/15 11:03:37;;;;;;;19.20;13.85;;;;;;;6.31;83.51;98404.55;1755454;81;21082;-63
2021/03/15 11:06:17;;;;;;;16.25;12.53;;;;;;;6.33;83.63;98398.87;1732381;82;21081;-63
2021/03/15 11:08:58;;;;;;;15.58;12.90;;;;;;;6.37;83.92;98384.48;1755272;81;21419;-63
2021/03/15 11:11:30;;;;;;;16.52;12.23;;;;;;;6.39;83.73;98383.97;1734027;82;21503;-63
2021/03/15 11:14:07;;;;;;;18.77;14.95;;;;;;;6.40;83.81;98388.20;1755153;81;21139;-64
2021/03/15 11:16:40;;;;;;;16.45;13.18;;;;;;;6.40;83.43;98383.48;1734167;82;20930;-63
2021/03/15 11:19:15;;;;;;;17.15;13.32;;;;;;;6.32;83.34;98382.98;1755889;81;21067;-63
2021/03/15 11:21:46;;;;;;;17.07;13.50;;;;;;;6.23;83.34;98381.16;1706837;82;21353;-63
2021/03/15 11:24:16;;;;;;;16.50;13.10;;;;;;;6.18;83.71;98380.53;1754591;81;21091;-63
2021/03/15 11:26:55;;;;;;;16.75;12.90;;;;;;;6.17;84.06;98372.39;1695614;81;21116;-62
2021/03/15 11:29:38;;;;;;;17.05;12.58;;;;;;;6.21;84.28;98369.20;1727630;81;21561;-62
2021/03/15 11:32:10;;;;;;;15.85;12.80;;;;;;;6.26;84.29;98376.77;1707082;82;21100;-63
2021/03/15 11:34:49;;;;;;;15.25;11.70;;;;;;;6.23;84.18;98359.20;1755376;81;21375;-63
2021/03/15 11:37:28;;;;;;;14.78;11.85;;;;;;;6.17;84.20;98347.87;1708017;82;21493;-63
2021/03/15 11:40:09;;;;;;;15.95;11.90;;;;;;;6.06;84.54;98335.84;1754809;81;21111;-63
2021/03/15 11:42:38;;;;;;;17.77;12.63;;;;;;;5.88;85.05;98328.81;1732948;82;21797;-62
2021/03/15 11:45:10;;;;;;;17.20;12.55;;;;;;;5.74;85.66;98328.55;1755180;81;21067;-63
2021/03/15 11:47:38;;;;;;;16.48;12.15;;;;;;;5.65;86.25;98318.58;1733671;82;21542;-63
2021/03/15 11:50:14;;;;;;;19.45;13.28;;;;;;;5.58;86.77;98344.25;1753747;81;21520;-64
2021/03/15 11:52:44;;;;;;;18.25;12.75;;;;;;;5.59;87.22;98335.61;1731746;82;21108;-62
2021/03/15 11:55:15;;;;;;;18.15;13.00;;;;;;;5.60;87.38;98336.81;1753994;81;21138;-61
2021/03/15 11:57:44;;;;;;;15.70;11.43;;;;;;;5.64;87.60;98336.24;1733667;82;21124;-62
2021/03/15 12:00:15;;;;;;;22.00;14.47;;;;;;;5.70;87.58;98330.41;1755283;81;21221;-62
2021/03/15 12:02:50;;;;;;;16.97;11.78;;;;;;;5.73;87.46;98328.99;1733590;82;21510;-65